Time;durP1;ratioP1;P1;durP2;ratioP2;P2;SDS_P1;SDS_P2;PMS_P1;PMS_P2;Temp;Humidity;BMP_temperature;BMP_pressure;BME280_temperature;BME280_humidity;BME280_pressure;Samples;Min_cycle;Max_cycle;Signal;HPM_P1;HPM_P2
2024/02/19 00:02:21;;;;;;;1.00;0.95;;;8.80;99.90;;;;;;4424087;32;20729;-59
2024/02/19 00:04:46;;;;;;;0.40;0.40;;;8.80;99.90;;;;;;4427999;32;20072;-59
2024/02/19 00:07:14;;;;;;;0.40;0.40;;;8.80;99.90;;;;;;4427330;32;21070;-59
2024/02/19 00:09:39;;;;;;;0.50;0.50;;;8.80;99.90;;;;;;4426002;32;20533;-59
2024/02/19 00:12:05;;;;;;;0.43;0.43;;;8.80;99.90;;;;;;4429485;32;20069;-61
2024/02/19 00:14:30;;;;;;;0.30;0.30;;;8.70;99.90;;;;;;4428742;32;20534;-59
2024/02/19 00:16:56;;;;;;;0.30;0.30;;;8.70;99.90;;;;;;4427471;32;20521;-58
2024/02/19 00:19:21;;;;;;;0.40;0.40;;;8.70;99.90;;;;;;4426969;32;20450;-59
2024/02/19 00:21:47;;;;;;;0.70;0.70;;;8.80;99.90;;;;;;4429703;32;20073;-62
2024/02/19 00:24:12;;;;;;;0.50;0.50;;;8.80;99.90;;;;;;4427618;32;20065;-60
2024/02/19 00:26:38;;;;;;;0.40;0.40;;;8.80;99.90;;;;;;4425257;32;20785;-59
2024/02/19 00:29:04;;;;;;;0.30;0.30;;;8.80;99.90;;;;;;4427704;32;20120;-58
2024/02/19 00:31:30;;;;;;;0.43;0.43;;;8.80;99.90;;;;;;4417645;32;20085;-59
2024/02/19 00:33:55;;;;;;;1.00;0.70;;;8.80;99.90;;;;;;4432021;32;20484;-60
2024/02/19 00:36:21;;;;;;;0.40;0.40;;;8.80;99.90;;;;;;4427339;32;20081;-59
2024/02/19 00:38:46;;;;;;;0.88;0.52;;;8.80;99.90;;;;;;4429174;32;20176;-59
2024/02/19 00:41:12;;;;;;;4.15;0.82;;;8.80;99.90;;;;;;4427757;32;20072;-60
2024/02/19 00:43:37;;;;;;;0.43;0.43;;;8.80;99.90;;;;;;4424018;32;20069;-60
2024/02/19 00:46:03;;;;;;;0.45;0.45;;;8.80;99.90;;;;;;4425575;32;20061;-60
2024/02/19 00:48:28;;;;;;;0.30;0.30;;;8.80;99.90;;;;;;4426525;32;20520;-58
2024/02/19 00:50:54;;;;;;;2.47;0.85;;;8.90;99.90;;;;;;4427281;32;20121;-59
2024/02/19 00:53:20;;;;;;;0.37;0.37;;;8.80;99.90;;;;;;4428717;32;20078;-59
2024/02/19 00:55:45;;;;;;;1.30;0.88;;;8.90;99.90;;;;;;4423789;32;20069;-59
2024/02/19 00:58:11;;;;;;;0.28;0.28;;;8.90;99.90;;;;;;4398434;32;20060;-59
2024/02/19 01:00:36;;;;;;;0.30;0.30;;;8.90;99.90;;;;;;4426398;32;20054;-59
2024/02/19 01:03:02;;;;;;;1.23;0.88;;;8.80;99.90;;;;;;4427910;32;20076;-59
2024/02/19 01:05:28;;;;;;;0.55;0.55;;;8.90;99.90;;;;;;4426172;32;20058;-60
2024/02/19 01:07:53;;;;;;;2.78;0.90;;;8.90;99.90;;;;;;4425509;32;20069;-59
2024/02/19 01:10:19;;;;;;;0.40;0.40;;;8.90;99.90;;;;;;4427508;32;20079;-59
2024/02/19 01:12:44;;;;;;;0.43;0.43;;;8.90;99.90;;;;;;4428421;32;20065;-60
2024/02/19 01:15:10;;;;;;;5.68;1.20;;;8.90;99.90;;;;;;4426719;32;20093;-60
2024/02/19 01:17:37;;;;;;;0.40;0.40;;;8.90;99.90;;;;;;4426535;32;20089;-58
2024/02/19 01:20:04;;;;;;;1.85;0.88;;;8.90;99.90;;;;;;4418679;32;20081;-59
2024/02/19 01:22:30;;;;;;;0.30;0.30;;;8.90;99.90;;;;;;4429143;32;20548;-59
2024/02/19 01:24:56;;;;;;;0.47;0.47;;;9.00;99.90;;;;;;4420913;32;20093;-59
2024/02/19 01:27:22;;;;;;;0.40;0.40;;;9.00;99.90;;;;;;4413050;32;20096;-60
2024/02/19 01:29:48;;;;;;;3.05;0.68;;;9.00;99.90;;;;;;4424637;32;20065;-59
2024/02/19 01:32:14;;;;;;;5.95;0.77;;;9.00;99.90;;;;;;4428667;32;20549;-60
2024/02/19 01:34:39;;;;;;;0.95;0.55;;;9.00;99.90;;;;;;4428674;32;20078;-59
2024/02/19 01:37:04;;;;;;;0.40;0.40;;;9.00;99.90;;;;;;4425477;32;20081;-58
2024/02/19 01:39:30;;;;;;;28.85;2.45;;;9.00;99.90;;;;;;4426281;32;20053;-59
2024/02/19 01:41:56;;;;;;;0.30;0.30;;;9.00;99.90;;;;;;4419324;32;20085;-59
2024/02/19 01:44:21;;;;;;;0.30;0.30;;;9.00;99.90;;;;;;4427786;32;20419;-59
2024/02/19 01:46:47;;;;;;;0.40;0.40;;;9.10;99.90;;;;;;4428028;32;20072;-59
2024/02/19 01:49:13;;;;;;;0.45;0.45;;;9.00;99.90;;;;;;4427470;32;20124;-59
2024/02/19 01:51:40;;;;;;;0.40;0.40;;;9.00;99.90;;;;;;4427933;32;20093;-58
2024/02/19 01:54:09;;;;;;;0.30;0.30;;;9.00;99.90;;;;;;4428108;32;20080;-58
2024/02/19 01:56:36;;;;;;;0.57;0.57;;;9.00;99.90;;;;;;4425338;32;20086;-59
2024/02/19 01:59:02;;;;;;;0.35;0.35;;;9.00;99.90;;;;;;4424109;32;20097;-58
2024/02/19 02:01:29;;;;;;;0.30;0.30;;;9.10;99.90;;;;;;4417085;32;20539;-58
2024/02/19 02:03:54;;;;;;;0.30;0.30;;;9.00;99.90;;;;;;4427061;32;20082;-59
2024/02/19 02:06:22;;;;;;;0.32;0.32;;;9.00;99.90;;;;;;4403000;32;20173;-59
2024/02/19 02:08:49;;;;;;;0.52;0.52;;;9.00;99.90;;;;;;4428434;32;20077;-58
2024/02/19 02:11:14;;;;;;;0.30;0.30;;;9.10;99.90;;;;;;4428034;32;20180;-59
2024/02/19 02:13:40;;;;;;;0.30;0.30;;;9.00;99.90;;;;;;4428374;32;20573;-63
2024/02/19 02:16:06;;;;;;;0.20;0.20;;;9.10;99.90;;;;;;4427519;32;20061;-59
2024/02/19 02:18:33;;;;;;;0.30;0.30;;;9.10;99.90;;;;;;4417029;32;20069;-59
2024/02/19 02:20:58;;;;;;;0.43;0.43;;;9.00;99.90;;;;;;4431571;32;20061;-58
2024/02/19 02:23:25;;;;;;;0.40;0.40;;;9.10;99.90;;;;;;4432341;32;20082;-59
2024/02/19 02:25:51;;;;;;;0.30;0.30;;;9.10;99.90;;;;;;4406593;32;20422;-59
2024/02/19 02:28:17;;;;;;;0.57;0.57;;;9.10;99.90;;;;;;4404504;32;20073;-59
2024/02/19 02:30:42;;;;;;;0.40;0.40;;;9.10;99.90;;;;;;4428069;32;20486;-58
2024/02/19 02:33:08;;;;;;;0.30;0.30;;;9.10;99.90;;;;;;4428475;32;20162;-58
2024/02/19 02:35:34;;;;;;;0.40;0.40;;;9.00;99.90;;;;;;4429973;32;20077;-59
2024/02/19 02:37:59;;;;;;;0.30;0.30;;;9.00;99.90;;;;;;4419858;32;20077;-58
2024/02/19 02:40:25;;;;;;;0.30;0.30;;;9.10;99.90;;;;;;4428252;32;20074;-59
2024/02/19 02:42:51;;;;;;;0.40;0.40;;;9.10;99.90;;;;;;4427581;32;20461;-59
2024/02/19 02:45:16;;;;;;;0.43;0.43;;;9.10;99.90;;;;;;4430390;32;20128;-59
2024/02/19 02:47:42;;;;;;;0.30;0.30;;;9.00;99.90;;;;;;4416980;32;20085;-58
2024/02/19 02:50:08;;;;;;;0.28;0.28;;;9.10;99.90;;;;;;4430609;32;20069;-60
2024/02/19 02:52:33;;;;;;;4.28;0.88;;;9.10;99.90;;;;;;4420817;32;20485;-60
2024/02/19 02:54:58;;;;;;;0.32;0.32;;;9.00;99.90;;;;;;4409326;32;20065;-60
2024/02/19 02:57:24;;;;;;;0.30;0.30;;;9.00;99.90;;;;;;4408132;32;20447;-60
2024/02/19 02:59:49;;;;;;;0.43;0.43;;;9.00;99.90;;;;;;4409552;32;20070;-60
2024/02/19 03:02:15;;;;;;;0.30;0.30;;;8.90;99.90;;;;;;4412087;32;20061;-62
2024/02/19 03:04:41;;;;;;;0.30;0.30;;;9.00;99.90;;;;;;4409454;32;20173;-60
2024/02/19 03:07:06;;;;;;;0.50;0.50;;;9.00;99.90;;;;;;4412151;32;20427;-59
2024/02/19 03:09:32;;;;;;;0.37;0.37;;;8.90;99.90;;;;;;4409635;32;20161;-59
2024/02/19 03:11:57;;;;;;;0.40;0.40;;;8.90;99.90;;;;;;4409418;32;20789;-60
2024/02/19 03:14:23;;;;;;;0.98;0.55;;;8.90;99.90;;;;;;4410298;32;20431;-59
2024/02/19 03:16:48;;;;;;;0.37;0.37;;;8.90;99.90;;;;;;4409568;32;20215;-60
2024/02/19 03:19:14;;;;;;;0.40;0.40;;;8.90;99.90;;;;;;4409081;32;20117;-59
2024/02/19 03:21:41;;;;;;;0.40;0.40;;;8.90;99.90;;;;;;4410133;32;20136;-60
2024/02/19 03:24:08;;;;;;;0.60;0.55;;;8.90;99.90;;;;;;4408926;32;20086;-59
2024/02/19 03:26:33;;;;;;;0.30;0.30;;;8.90;99.90;;;;;;4407862;32;20090;-60
2024/02/19 03:29:00;;;;;;;0.40;0.40;;;8.90;99.90;;;;;;4408049;32;20564;-59
2024/02/19 03:31:26;;;;;;;0.30;0.30;;;8.90;99.90;;;;;;4409252;32;20074;-58
2024/02/19 03:33:52;;;;;;;0.30;0.30;;;8.90;99.90;;;;;;4407954;32;20069;-60
2024/02/19 03:36:18;;;;;;;0.65;0.50;;;8.90;99.90;;;;;;4412166;32;20105;-59
2024/02/19 03:38:44;;;;;;;0.57;0.57;;;8.90;99.90;;;;;;4406643;32;20074;-58
2024/02/19 03:41:11;;;;;;;2.30;0.82;;;8.90;99.90;;;;;;4411667;32;20078;-57
2024/02/19 03:43:37;;;;;;;0.30;0.30;;;8.90;99.90;;;;;;4409647;32;20073;-60
2024/02/19 03:46:04;;;;;;;0.40;0.40;;;8.90;99.90;;;;;;4408056;32;20132;-59
2024/02/19 03:48:30;;;;;;;0.35;0.35;;;8.90;99.90;;;;;;4408406;32;21223;-60
2024/02/19 03:50:55;;;;;;;1.55;0.52;;;8.80;99.90;;;;;;4408901;32;20090;-60
2024/02/19 03:53:22;;;;;;;0.32;0.32;;;8.80;99.90;;;;;;4418758;32;20120;-60
2024/02/19 03:55:48;;;;;;;0.30;0.30;;;8.90;99.90;;;;;;4415235;32;20057;-58
2024/02/19 03:58:13;;;;;;;0.30;0.30;;;8.80;99.90;;;;;;4412980;32;20073;-58
2024/02/19 04:00:39;;;;;;;0.30;0.30;;;8.80;99.90;;;;;;4414006;32;20565;-60
2024/02/19 04:03:05;;;;;;;0.43;0.43;;;8.80;99.90;;;;;;4412689;32;20093;-59
2024/02/19 04:05:30;;;;;;;0.30;0.30;;;8.90;99.90;;;;;;4412666;32;20073;-58
2024/02/19 04:07:56;;;;;;;0.50;0.50;;;8.80;99.90;;;;;;4417354;32;20081;-60
2024/02/19 04:10:21;;;;;;;0.30;0.30;;;8.80;99.90;;;;;;4416072;32;20528;-59
2024/02/19 04:12:48;;;;;;;0.30;0.30;;;8.80;99.90;;;;;;4412922;32;20073;-57
2024/02/19 04:15:13;;;;;;;0.30;0.30;;;8.80;99.90;;;;;;4417850;32;20502;-60
2024/02/19 04:17:39;;;;;;;0.30;0.30;;;8.80;99.90;;;;;;4416625;32;20128;-59
2024/02/19 04:20:05;;;;;;;0.28;0.28;;;8.80;99.90;;;;;;4418655;32;20078;-60
2024/02/19 04:22:30;;;;;;;0.28;0.28;;;8.80;99.90;;;;;;4417385;32;20588;-59
2024/02/19 04:24:56;;;;;;;0.30;0.30;;;8.80;99.90;;;;;;4415846;32;20296;-59
2024/02/19 04:27:21;;;;;;;0.30;0.30;;;8.80;99.90;;;;;;4412625;32;20822;-58
2024/02/19 04:29:47;;;;;;;0.30;0.30;;;8.80;99.90;;;;;;4414648;32;20062;-58
2024/02/19 04:32:13;;;;;;;0.55;0.55;;;8.80;99.90;;;;;;4418869;32;20088;-58
2024/02/19 04:34:38;;;;;;;0.30;0.30;;;8.80;99.90;;;;;;4418503;32;20419;-58
2024/02/19 04:37:06;;;;;;;0.30;0.30;;;8.90;99.90;;;;;;4418402;32;20082;-59
2024/02/19 04:39:32;;;;;;;0.20;0.20;;;8.80;99.90;;;;;;4417088;32;20070;-58
2024/02/19 04:41:59;;;;;;;0.30;0.30;;;8.80;99.90;;;;;;4418274;32;20582;-58
2024/02/19 04:44:25;;;;;;;0.30;0.30;;;8.80;99.90;;;;;;4412378;32;20513;-59
2024/02/19 04:46:50;;;;;;;0.28;0.28;;;8.80;99.90;;;;;;4420140;32;20077;-58
2024/02/19 04:49:16;;;;;;;0.30;0.30;;;8.80;99.90;;;;;;4418611;32;20085;-59
2024/02/19 04:51:41;;;;;;;0.30;0.30;;;8.70;99.90;;;;;;4418054;32;20070;-60
2024/02/19 04:54:06;;;;;;;0.25;0.25;;;8.70;99.90;;;;;;4428044;32;20099;-60
2024/02/19 04:56:32;;;;;;;0.30;0.30;;;8.70;99.90;;;;;;4425584;32;20662;-60
2024/02/19 04:58:57;;;;;;;0.37;0.37;;;8.70;99.90;;;;;;4424738;32;20066;-60
2024/02/19 05:01:23;;;;;;;0.40;0.40;;;8.70;99.90;;;;;;4421653;32;20172;-59
2024/02/19 05:03:48;;;;;;;0.82;0.82;;;8.70;99.90;;;;;;4424215;32;21073;-60
2024/02/19 05:06:14;;;;;;;0.30;0.30;;;8.70;99.90;;;;;;4428398;32;20073;-60
2024/02/19 05:08:40;;;;;;;0.25;0.25;;;8.70;99.90;;;;;;4403761;32;20081;-59
2024/02/19 05:11:06;;;;;;;0.40;0.40;;;8.60;99.90;;;;;;4413335;32;20115;-58
2024/02/19 05:13:36;;;;;;;0.30;0.30;;;8.60;99.90;;;;;;4414131;32;20585;-59
2024/02/19 05:16:02;;;;;;;0.30;0.30;;;8.60;99.90;;;;;;4405622;32;20094;-59
2024/02/19 05:18:28;;;;;;;0.30;0.30;;;8.60;99.90;;;;;;4427582;32;20062;-60
2024/02/19 05:20:53;;;;;;;0.30;0.30;;;8.60;99.90;;;;;;4424349;32;20287;-60
2024/02/19 05:23:19;;;;;;;0.40;0.40;;;8.60;99.90;;;;;;4420554;32;20761;-60
2024/02/19 05:25:44;;;;;;;0.30;0.30;;;8.50;99.90;;;;;;4418513;32;20084;-59
2024/02/19 05:28:10;;;;;;;0.30;0.30;;;8.50;99.90;;;;;;4425870;32;20069;-59
2024/02/19 05:30:36;;;;;;;0.40;0.40;;;8.40;99.90;;;;;;4424636;32;20073;-59
2024/02/19 05:33:01;;;;;;;0.30;0.30;;;8.40;99.90;;;;;;4428341;32;20117;-60
2024/02/19 05:35:27;;;;;;;0.30;0.30;;;8.50;99.90;;;;;;4418334;32;20221;-59
2024/02/19 05:37:52;;;;;;;0.40;0.40;;;8.40;99.90;;;;;;4428100;32;20074;-59
2024/02/19 05:40:18;;;;;;;0.20;0.20;;;8.40;99.90;;;;;;4425528;32;20065;-60
2024/02/19 05:42:43;;;;;;;0.40;0.40;;;8.40;99.90;;;;;;4424506;32;20077;-59
2024/02/19 05:45:10;;;;;;;0.40;0.40;;;8.40;99.90;;;;;;4427812;32;20152;-59
2024/02/19 05:47:35;;;;;;;0.65;0.50;;;8.30;99.90;;;;;;4429986;32;20081;-62
2024/02/19 05:50:01;;;;;;;0.30;0.30;;;8.30;99.90;;;;;;4417572;32;21144;-60
2024/02/19 05:52:27;;;;;;;0.30;0.30;;;8.30;99.90;;;;;;4414423;32;20070;-59
2024/02/19 05:54:53;;;;;;;0.20;0.20;;;8.20;99.90;;;;;;4409118;32;20419;-59
2024/02/19 05:57:18;;;;;;;0.40;0.40;;;8.20;99.90;;;;;;4406705;32;20077;-59
2024/02/19 05:59:44;;;;;;;0.30;0.30;;;8.20;99.90;;;;;;4407099;32;20499;-59
2024/02/19 06:02:09;;;;;;;0.30;0.30;;;8.10;99.90;;;;;;4406644;32;20073;-61
2024/02/19 06:04:35;;;;;;;0.30;0.30;;;8.10;99.90;;;;;;4408173;32;20131;-58
2024/02/19 06:07:01;;;;;;;0.30;0.30;;;8.00;99.90;;;;;;4391935;32;20090;-59
2024/02/19 06:09:27;;;;;;;0.30;0.30;;;8.00;99.90;;;;;;4406354;32;20066;-61
2024/02/19 06:11:54;;;;;;;0.30;0.30;;;8.00;99.90;;;;;;4408428;32;20457;-60
2024/02/19 06:14:19;;;;;;;0.30;0.30;;;8.00;99.90;;;;;;4394029;32;21623;-60
2024/02/19 06:16:45;;;;;;;0.30;0.30;;;8.00;99.90;;;;;;4406141;32;20081;-60
2024/02/19 06:19:10;;;;;;;0.30;0.30;;;7.90;99.90;;;;;;4401924;32;20314;-60
2024/02/19 06:21:36;;;;;;;0.30;0.30;;;8.00;99.90;;;;;;4390886;32;20657;-60
2024/02/19 06:24:02;;;;;;;0.30;0.30;;;7.90;99.90;;;;;;4396566;32;20073;-58
2024/02/19 06:26:27;;;;;;;0.30;0.30;;;7.90;99.90;;;;;;4384773;32;20074;-58
2024/02/19 06:28:53;;;;;;;0.30;0.30;;;7.90;99.90;;;;;;4390807;32;20071;-60
2024/02/19 06:31:18;;;;;;;0.32;0.32;;;7.90;99.90;;;;;;4399123;32;20122;-59
2024/02/19 06:33:44;;;;;;;0.30;0.30;;;7.90;99.90;;;;;;4399432;32;21053;-60
2024/02/19 06:36:10;;;;;;;0.37;0.37;;;7.90;99.90;;;;;;4399894;32;20545;-60
2024/02/19 06:38:36;;;;;;;0.20;0.20;;;7.90;99.90;;;;;;4397256;32;20098;-60
2024/02/19 06:41:02;;;;;;;0.30;0.30;;;7.90;99.90;;;;;;4394903;32;20423;-60
2024/02/19 06:43:28;;;;;;;0.30;0.30;;;7.90;99.90;;;;;;4395378;32;20097;-61
2024/02/19 06:45:53;;;;;;;0.20;0.20;;;7.90;99.90;;;;;;4388840;32;20097;-60
2024/02/19 06:48:19;;;;;;;0.40;0.40;;;7.80;99.90;;;;;;4388326;32;20078;-62
2024/02/19 06:50:45;;;;;;;0.20;0.20;;;7.80;99.90;;;;;;4390000;32;20101;-62
2024/02/19 06:53:11;;;;;;;0.20;0.20;;;7.70;99.90;;;;;;4406305;32;20204;-58
2024/02/19 06:55:36;;;;;;;0.30;0.30;;;7.70;99.90;;;;;;4403697;32;20329;-60
2024/02/19 06:58:02;;;;;;;0.30;0.30;;;7.70;99.90;;;;;;4389017;32;20073;-59
2024/02/19 07:00:28;;;;;;;0.40;0.40;;;7.70;99.90;;;;;;4382609;32;20331;-59
2024/02/19 07:02:53;;;;;;;0.30;0.30;;;7.70;99.90;;;;;;4379609;32;20859;-59
2024/02/19 07:05:19;;;;;;;0.30;0.30;;;7.70;99.90;;;;;;4382160;32;20097;-59
2024/02/19 07:07:47;;;;;;;0.20;0.20;;;7.70;99.90;;;;;;4370634;32;20118;-62
2024/02/19 07:10:12;;;;;;;0.98;0.93;;;7.70;99.90;;;;;;4367731;32;20073;-58
2024/02/19 07:12:38;;;;;;;0.30;0.30;;;7.60;99.90;;;;;;4392227;32;20094;-61
2024/02/19 07:15:05;;;;;;;0.30;0.30;;;7.70;99.90;;;;;;4389315;32;20078;-60
2024/02/19 07:17:30;;;;;;;0.30;0.30;;;7.70;99.90;;;;;;4375965;32;20082;-59
2024/02/19 07:19:56;;;;;;;0.25;0.25;;;7.60;99.90;;;;;;4381145;32;21499;-59
2024/02/19 07:22:21;;;;;;;0.20;0.20;;;7.60;99.90;;;;;;4368655;32;20954;-60
2024/02/19 07:24:47;;;;;;;0.28;0.28;;;7.70;99.90;;;;;;4359276;32;20094;-60
2024/02/19 07:27:12;;;;;;;0.30;0.30;;;7.60;99.90;;;;;;4372697;32;20466;-59
2024/02/19 07:29:38;;;;;;;0.30;0.30;;;7.70;99.90;;;;;;4361354;32;20109;-60
2024/02/19 07:32:03;;;;;;;0.30;0.30;;;7.60;99.90;;;;;;4379121;32;20264;-60
2024/02/19 07:34:29;;;;;;;0.40;0.40;;;7.60;99.90;;;;;;4384800;32;20142;-60
2024/02/19 07:36:54;;;;;;;0.30;0.30;;;7.60;99.90;;;;;;4392327;32;21392;-60
2024/02/19 07:39:20;;;;;;;0.50;0.50;;;7.60;99.90;;;;;;4388514;32;20472;-60
2024/02/19 07:41:46;;;;;;;0.28;0.28;;;7.60;99.90;;;;;;4381583;32;20395;-59
2024/02/19 07:44:11;;;;;;;0.30;0.30;;;7.70;99.90;;;;;;4372585;32;20105;-57
2024/02/19 07:46:37;;;;;;;0.30;0.30;;;7.70;99.90;;;;;;4369594;32;20073;-61
2024/02/19 07:49:03;;;;;;;0.30;0.30;;;7.70;99.90;;;;;;4366036;32;20723;-57
2024/02/19 07:51:28;;;;;;;0.30;0.30;;;7.60;99.90;;;;;;4358816;32;20081;-60
2024/02/19 07:53:55;;;;;;;0.37;0.35;;;7.70;99.90;;;;;;4369495;32;20438;-60
2024/02/19 07:56:20;;;;;;;0.30;0.30;;;7.60;99.90;;;;;;4389449;32;20082;-59
2024/02/19 07:58:46;;;;;;;0.30;0.30;;;7.60;99.90;;;;;;4348266;32;20710;-59
2024/02/19 08:01:11;;;;;;;0.30;0.30;;;7.60;99.90;;;;;;4378814;32;21712;-59
2024/02/19 08:03:36;;;;;;;0.20;0.20;;;7.60;99.90;;;;;;4372974;32;20086;-61
2024/02/19 08:06:02;;;;;;;0.30;0.30;;;7.70;99.90;;;;;;4369822;32;20536;-61
2024/02/19 08:08:28;;;;;;;0.30;0.30;;;7.70;99.90;;;;;;4374550;32;20148;-58
2024/02/19 08:10:54;;;;;;;0.30;0.30;;;7.60;99.90;;;;;;4380494;32;20182;-60
2024/02/19 08:13:19;;;;;;;0.30;0.30;;;7.50;99.90;;;;;;4375091;32;20093;-60
2024/02/19 08:15:45;;;;;;;0.20;0.20;;;7.50;99.90;;;;;;4374263;32;20556;-60
2024/02/19 08:18:11;;;;;;;0.30;0.30;;;7.60;99.90;;;;;;4376740;32;20143;-60
2024/02/19 08:20:38;;;;;;;0.30;0.30;;;7.60;99.90;;;;;;4357033;32;20450;-60
2024/02/19 08:23:04;;;;;;;0.20;0.20;;;7.70;99.90;;;;;;4379286;32;20089;-62
2024/02/19 08:25:30;;;;;;;0.20;0.20;;;7.70;99.90;;;;;;4357083;32;20622;-61
2024/02/19 08:27:55;;;;;;;0.20;0.20;;;7.70;99.90;;;;;;4382122;32;22199;-60
2024/02/19 08:30:21;;;;;;;0.40;0.40;;;7.60;99.90;;;;;;4380889;32;21162;-60
2024/02/19 08:32:46;;;;;;;0.30;0.30;;;7.60;99.90;;;;;;4375395;32;20917;-61
2024/02/19 08:35:12;;;;;;;0.30;0.30;;;7.60;99.90;;;;;;4373108;32;20314;-60
2024/02/19 08:37:37;;;;;;;0.37;0.37;;;7.50;99.90;;;;;;4394190;32;20179;-60
2024/02/19 08:40:05;;;;;;;0.30;0.30;;;7.60;99.90;;;;;;4383976;32;20089;-59
2024/02/19 08:42:31;;;;;;;0.30;0.30;;;7.50;99.90;;;;;;4382543;32;20788;-60
2024/02/19 08:44:56;;;;;;;0.30;0.30;;;7.50;99.90;;;;;;4367772;32;20384;-61
2024/02/19 08:47:22;;;;;;;0.30;0.30;;;7.60;99.90;;;;;;4387298;32;20957;-59
2024/02/19 08:49:47;;;;;;;0.30;0.30;;;7.60;99.90;;;;;;4380054;32;20175;-62
2024/02/19 08:52:14;;;;;;;0.40;0.40;;;7.70;99.90;;;;;;4380005;32;20097;-60
2024/02/19 08:54:40;;;;;;;0.30;0.30;;;7.70;99.90;;;;;;4379280;32;20156;-58
2024/02/19 08:57:05;;;;;;;0.20;0.20;;;7.70;99.90;;;;;;4382532;32;20077;-58
2024/02/19 08:59:31;;;;;;;0.30;0.30;;;7.70;99.90;;;;;;4388354;32;20081;-60
2024/02/19 09:01:57;;;;;;;0.25;0.25;;;7.60;99.90;;;;;;4384364;32;20081;-60
2024/02/19 09:04:23;;;;;;;0.35;0.35;;;7.50;99.90;;;;;;4393503;32;20798;-59
2024/02/19 09:06:49;;;;;;;0.20;0.20;;;7.60;99.90;;;;;;4388467;32;20559;-61
2024/02/19 09:09:15;;;;;;;0.37;0.37;;;7.60;99.90;;;;;;4392474;32;20081;-64
2024/02/19 09:11:41;;;;;;;0.20;0.20;;;7.60;99.90;;;;;;4361593;32;20077;-60
2024/02/19 09:14:06;;;;;;;0.30;0.30;;;7.50;99.90;;;;;;4364009;32;20942;-60
2024/02/19 09:16:32;;;;;;;0.30;0.30;;;7.40;99.90;;;;;;4374920;32;20105;-60
2024/02/19 09:18:58;;;;;;;0.30;0.30;;;7.30;99.90;;;;;;4365169;32;20074;-60
2024/02/19 09:21:23;;;;;;;1.55;0.70;;;7.40;99.90;;;;;;4356285;32;20857;-61
2024/02/19 09:23:49;;;;;;;0.30;0.30;;;7.40;99.90;;;;;;4374996;32;20683;-60
2024/02/19 09:26:15;;;;;;;0.30;0.30;;;7.40;99.90;;;;;;4379454;32;20106;-59
2024/02/19 09:28:40;;;;;;;0.20;0.20;;;7.30;99.90;;;;;;4365647;32;20106;-58
2024/02/19 09:31:06;;;;;;;0.22;0.22;;;7.30;99.90;;;;;;4373686;32;20117;-60
2024/02/19 09:33:32;;;;;;;0.40;0.40;;;7.20;99.90;;;;;;4360601;32;20632;-61
2024/02/19 09:35:57;;;;;;;0.25;0.25;;;7.10;99.90;;;;;;4377054;32;20073;-59
2024/02/19 09:38:23;;;;;;;0.40;0.40;;;7.10;99.90;;;;;;4381918;32;20104;-60
2024/02/19 09:40:49;;;;;;;0.30;0.30;;;7.10;99.90;;;;;;4381849;32;20694;-60
2024/02/19 09:43:17;;;;;;;0.30;0.30;;;7.10;99.90;;;;;;4377893;32;20334;-60
2024/02/19 09:45:43;;;;;;;0.40;0.40;;;7.10;99.90;;;;;;4370919;32;20117;-60
2024/02/19 09:48:10;;;;;;;0.30;0.30;;;7.20;99.90;;;;;;4375481;32;20619;-61
2024/02/19 09:50:43;;;;;;;0.40;0.40;;;7.10;99.90;;;;;;4355678;32;20753;-60
2024/02/19 09:53:10;;;;;;;0.30;0.30;;;7.20;99.90;;;;;;4387485;32;20550;-61
2024/02/19 09:55:36;;;;;;;0.30;0.30;;;7.10;99.90;;;;;;4387075;32;20072;-60
2024/02/19 09:58:03;;;;;;;5.82;1.75;;;7.10;99.90;;;;;;4382726;32;21230;-59
2024/02/19 10:00:29;;;;;;;0.30;0.30;;;7.10;99.90;;;;;;4389836;32;20853;-58
2024/02/19 10:02:55;;;;;;;0.30;0.30;;;7.10;99.90;;;;;;4380325;32;20065;-60
2024/02/19 10:05:20;;;;;;;0.40;0.40;;;7.20;99.90;;;;;;4377521;32;20153;-59
2024/02/19 10:07:46;;;;;;;0.30;0.30;;;7.10;99.90;;;;;;4382793;32;20635;-61
2024/02/19 10:10:12;;;;;;;0.25;0.25;;;7.10;99.90;;;;;;4388515;32;20085;-59
2024/02/19 10:12:39;;;;;;;0.30;0.30;;;7.10;99.90;;;;;;4367086;32;20192;-60
2024/02/19 10:15:05;;;;;;;0.30;0.30;;;7.10;99.90;;;;;;4384484;32;20790;-60
2024/02/19 10:17:31;;;;;;;0.30;0.30;;;7.20;99.90;;;;;;4381278;32;20081;-58
2024/02/19 10:20:00;;;;;;;0.30;0.30;;;7.30;99.90;;;;;;4386079;32;20708;-60
2024/02/19 10:22:26;;;;;;;0.40;0.40;;;7.30;99.90;;;;;;4384244;32;20106;-60
2024/02/19 10:24:51;;;;;;;0.20;0.20;;;7.40;99.90;;;;;;4379859;32;20073;-59
2024/02/19 10:27:17;;;;;;;0.25;0.25;;;7.40;99.90;;;;;;4361681;32;20186;-60
2024/02/19 10:29:43;;;;;;;0.20;0.20;;;7.30;99.90;;;;;;4383032;32;20082;-60
2024/02/19 10:32:08;;;;;;;0.30;0.30;;;7.40;99.90;;;;;;4388056;32;20317;-60
2024/02/19 10:34:34;;;;;;;0.32;0.32;;;7.50;99.90;;;;;;4375660;32;20248;-60
2024/02/19 10:37:03;;;;;;;0.50;0.50;;;7.40;99.90;;;;;;4394550;32;20184;-58
2024/02/19 10:39:31;;;;;;;0.20;0.20;;;7.30;99.90;;;;;;4396349;32;20113;-61
2024/02/19 10:41:58;;;;;;;0.65;0.60;;;7.40;99.90;;;;;;4380095;32;21006;-58
2024/02/19 10:44:24;;;;;;;0.90;0.50;;;7.60;99.90;;;;;;4385643;32;20155;-60
2024/02/19 10:46:51;;;;;;;0.30;0.30;;;7.70;99.90;;;;;;4368493;32;20085;-60
2024/02/19 10:49:19;;;;;;;0.50;0.50;;;7.80;99.90;;;;;;4379774;32;20101;-60
2024/02/19 10:51:45;;;;;;;0.30;0.30;;;7.80;99.90;;;;;;4381511;32;20118;-61
2024/02/19 10:54:16;;;;;;;0.30;0.30;;;7.90;99.90;;;;;;4374701;32;20114;-59
2024/02/19 10:56:43;;;;;;;0.30;0.30;;;7.90;99.90;;;;;;4359144;32;20229;-60
2024/02/19 10:59:10;;;;;;;0.25;0.25;;;7.80;99.90;;;;;;4375091;32;20089;-60
2024/02/19 11:01:41;;;;;;;0.50;0.50;;;7.70;99.90;;;;;;4352801;32;20078;-59
2024/02/19 11:04:11;;;;;;;;;;;7.70;99.90;;;;;;4372501;32;20089;-58
2024/02/19 11:06:39;;;;;;;0.30;0.30;;;7.70;99.90;;;;;;4374179;32;19970;-58
2024/02/19 11:09:12;;;;;;;0.30;0.30;;;7.80;99.90;;;;;;4371541;32;20094;-59
2024/02/19 11:11:46;;;;;;;0.30;0.30;;;7.80;99.90;;;;;;4376399;32;20133;-59
2024/02/19 11:14:12;;;;;;;0.28;0.28;;;7.70;99.90;;;;;;4368333;32;20097;-59
2024/02/19 11:16:38;;;;;;;0.30;0.30;;;7.70;99.90;;;;;;4368695;32;20097;-57
2024/02/19 11:19:03;;;;;;;0.25;0.25;;;7.60;99.90;;;;;;4367095;32;20090;-57
2024/02/19 11:21:29;;;;;;;0.30;0.30;;;7.70;99.90;;;;;;4374736;32;20082;-58
2024/02/19 11:23:55;;;;;;;0.30;0.30;;;7.70;99.90;;;;;;4382463;32;20077;-62
2024/02/19 11:26:21;;;;;;;0.30;0.30;;;7.80;99.90;;;;;;4377754;32;20920;-59
2024/02/19 11:28:53;;;;;;;0.30;0.30;;;7.90;99.90;;;;;;4378061;32;20113;-60
2024/02/19 11:31:19;;;;;;;0.40;0.40;;;7.90;99.90;;;;;;4383464;32;20085;-60
2024/02/19 11:33:49;;;;;;;0.32;0.32;;;8.00;99.90;;;;;;4375285;32;21071;-60
2024/02/19 11:36:14;;;;;;;0.30;0.30;;;8.00;99.90;;;;;;4378748;32;20281;-60
2024/02/19 11:38:40;;;;;;;0.30;0.30;;;8.00;99.90;;;;;;4384184;32;20090;-61
2024/02/19 11:41:09;;;;;;;0.30;0.30;;;8.10;99.90;;;;;;4383345;32;20101;-60
2024/02/19 11:43:35;;;;;;;0.30;0.30;;;8.20;99.90;;;;;;4379822;32;20226;-59
2024/02/19 11:46:01;;;;;;;0.30;0.30;;;8.10;99.90;;;;;;4383169;32;20073;-60
2024/02/19 11:48:29;;;;;;;0.40;0.40;;;8.20;99.90;;;;;;4383738;32;20097;-60
2024/02/19 11:50:55;;;;;;;0.30;0.30;;;8.20;99.90;;;;;;4386459;32;20570;-60
2024/02/19 11:53:22;;;;;;;0.30;0.30;;;8.10;99.90;;;;;;4361123;32;109581;-61
2024/02/19 11:55:59;;;;;;;0.30;0.30;;;8.20;99.90;;;;;;4355500;32;20113;-59
2024/02/19 11:58:28;;;;;;;0.30;0.30;;;8.20;99.90;;;;;;4356423;32;20535;-59
2024/02/19 12:00:56;;;;;;;0.20;0.20;;;8.20;99.90;;;;;;4367926;32;20542;-58
2024/02/19 12:03:24;;;;;;;0.30;0.30;;;8.30;99.90;;;;;;4377558;32;22571;-60
2024/02/19 12:05:51;;;;;;;0.30;0.30;;;8.20;99.90;;;;;;4375443;32;20104;-60
2024/02/19 12:08:16;;;;;;;0.30;0.30;;;8.30;99.90;;;;;;4378670;32;20081;-60
2024/02/19 12:10:42;;;;;;;0.30;0.30;;;8.40;99.90;;;;;;4376559;32;20103;-60
2024/02/19 12:13:07;;;;;;;0.30;0.30;;;8.40;99.90;;;;;;4375044;32;20129;-59
2024/02/19 12:15:33;;;;;;;0.35;0.35;;;8.40;99.90;;;;;;4382313;32;20132;-60
2024/02/19 12:18:04;;;;;;;0.30;0.30;;;8.50;99.90;;;;;;4373798;32;20596;-61
2024/02/19 12:20:30;;;;;;;0.30;0.30;;;8.70;99.90;;;;;;4377074;32;20097;-61
2024/02/19 12:22:55;;;;;;;0.20;0.20;;;8.80;99.90;;;;;;4368206;32;20193;-59
2024/02/19 12:25:21;;;;;;;0.30;0.30;;;8.90;99.90;;;;;;4373052;32;20129;-61
2024/02/19 12:27:47;;;;;;;0.40;0.40;;;8.80;99.90;;;;;;4367265;32;20110;-61
2024/02/19 12:30:13;;;;;;;0.20;0.20;;;8.80;99.90;;;;;;4371812;32;20156;-61
2024/02/19 12:32:39;;;;;;;0.30;0.30;;;8.80;99.90;;;;;;4379600;32;20092;-61
2024/02/19 12:35:05;;;;;;;0.25;0.25;;;8.80;99.90;;;;;;4379485;32;20466;-63
2024/02/19 12:37:31;;;;;;;0.20;0.20;;;8.90;99.90;;;;;;4373333;32;20073;-60
2024/02/19 12:39:56;;;;;;;0.30;0.30;;;9.00;99.90;;;;;;4381379;32;21088;-61
2024/02/19 12:42:22;;;;;;;0.40;0.40;;;9.00;99.90;;;;;;4367188;32;21812;-60
2024/02/19 12:44:48;;;;;;;0.30;0.30;;;9.00;99.90;;;;;;4349120;32;20151;-61
2024/02/19 12:47:13;;;;;;;0.20;0.20;;;9.00;99.90;;;;;;4360979;32;20114;-59
2024/02/19 12:49:38;;;;;;;0.40;0.40;;;8.90;99.90;;;;;;4370614;32;20097;-61
2024/02/19 12:52:04;;;;;;;0.30;0.30;;;9.00;99.90;;;;;;4375278;32;20077;-61